createdAt,value
2023-04-14T00:00:02.195Z,99328.42
2023-04-14T00:02:43.142Z,99323.17
2023-04-14T00:05:11.911Z,99325.46
2023-04-14T00:07:40.593Z,99325.04
2023-04-14T00:10:09.903Z,99324.92
2023-04-14T00:12:38.633Z,99331.98
2023-04-14T00:15:07.350Z,99336.36
2023-04-14T00:17:37.786Z,99332.67
2023-04-14T00:20:06.838Z,99334.04
2023-04-14T00:22:34.851Z,99330.48
2023-04-14T00:25:04.060Z,99327.28
2023-04-14T00:27:32.707Z,99326.05
2023-04-14T00:30:05.861Z,99326.60
2023-04-14T00:32:40.541Z,99331.77
2023-04-14T00:35:08.888Z,99334.52
2023-04-14T00:37:37.671Z,99335.96
2023-04-14T00:40:09.207Z,99337.45
2023-04-14T00:42:47.052Z,99336.95
2023-04-14T00:45:15.206Z,99336.95
2023-04-14T00:47:47.190Z,99337.14
2023-04-14T00:50:17.874Z,99338.67
2023-04-14T00:52:47.087Z,99333.08
2023-04-14T00:55:16.213Z,99336.46
2023-04-14T00:57:44.313Z,99334.36
2023-04-14T01:00:14.185Z,99334.98
2023-04-14T01:02:46.622Z,99340.44
2023-04-14T01:05:15.965Z,99344.15
2023-04-14T01:07:44.512Z,99345.25
2023-04-14T01:10:12.728Z,99345.29
2023-04-14T01:13:00.457Z,99345.98
2023-04-14T01:15:36.113Z,99346.21
2023-04-14T01:18:13.383Z,99349.08
2023-04-14T01:20:45.031Z,99347.97
2023-04-14T01:23:18.029Z,99352.17
2023-04-14T01:26:08.734Z,99351.73
2023-04-14T01:28:59.216Z,99351.08
2023-04-14T01:32:01.837Z,99349.73
2023-04-14T01:34:45.913Z,99352.52
2023-04-14T01:37:18.122Z,99351.45
2023-04-14T01:39:48.602Z,99351.45
2023-04-14T01:42:18.898Z,99344.43
2023-04-14T01:44:46.965Z,99344.39
2023-04-14T01:47:16.107Z,99350.83
2023-04-14T01:49:44.071Z,99352.59
2023-04-14T01:52:13.583Z,99354.02
2023-04-14T01:54:42.511Z,99354.09
2023-04-14T01:57:11.243Z,99354.12
2023-04-14T01:59:40.640Z,99357.73
2023-04-14T02:02:11.565Z,99359.80
2023-04-14T02:04:39.826Z,99356.17
2023-04-14T02:07:08.552Z,99357.68
2023-04-14T02:09:36.570Z,99366.13
2023-04-14T02:12:04.777Z,99368.08
2023-04-14T02:14:32.809Z,99370.92
2023-04-14T02:17:02.963Z,99372.51
2023-04-14T02:19:31.493Z,99374.26
2023-04-14T02:21:59.498Z,99377.15
2023-04-14T02:24:28.693Z,99379.42
2023-04-14T02:27:05.553Z,99378.39
2023-04-14T02:29:34.088Z,99380.00
2023-04-14T02:32:06.358Z,99383.91
2023-04-14T02:34:38.053Z,99381.73
2023-04-14T02:37:10.184Z,99384.54
2023-04-14T02:39:42.876Z,99382.93
2023-04-14T02:42:16.730Z,99380.75
2023-04-14T02:44:49.239Z,99390.63
2023-04-14T02:47:27.114Z,99394.46
2023-04-14T02:49:59.467Z,99393.48
2023-04-14T02:52:29.374Z,99400.20
2023-04-14T02:55:00.727Z,99399.46
2023-04-14T02:57:29.752Z,99399.64
2023-04-14T02:59:58.697Z,99399.17
2023-04-14T03:02:29.965Z,99400.79
2023-04-14T03:05:06.668Z,99403.23
2023-04-14T03:07:42.362Z,99403.68
2023-04-14T03:10:11.962Z,99404.89
2023-04-14T03:12:42.886Z,99406.22
2023-04-14T03:15:12.109Z,99410.14
2023-04-14T03:17:40.474Z,99412.30
2023-04-14T03:20:13.754Z,99413.94
2023-04-14T03:22:42.002Z,99417.28
2023-04-14T03:25:12.558Z,99419.49
2023-04-14T03:27:42.339Z,99423.11
2023-04-14T03:30:10.817Z,99428.98
2023-04-14T03:32:42.238Z,99430.66
2023-04-14T03:35:14.379Z,99429.27
2023-04-14T03:37:42.778Z,99433.42
2023-04-14T03:40:11.887Z,99435.94
2023-04-14T03:42:44.853Z,99437.33
2023-04-14T03:45:13.541Z,99440.73
2023-04-14T03:47:42.659Z,99444.10
2023-04-14T03:50:10.769Z,99441.08
2023-04-14T03:52:39.800Z,99442.41
2023-04-14T03:55:08.560Z,99443.57
2023-04-14T03:57:38.423Z,99447.91
2023-04-14T04:00:09.302Z,99448.11
2023-04-14T04:02:46.316Z,99453.90
2023-04-14T04:05:14.614Z,99453.31
2023-04-14T04:07:44.511Z,99456.40
2023-04-14T04:10:12.961Z,99459.05
2023-04-14T04:12:44.064Z,99459.04
2023-04-14T04:15:22.164Z,99460.02
2023-04-14T04:17:50.459Z,99462.45
2023-04-14T04:20:18.729Z,99464.94
2023-04-14T04:22:47.915Z,99466.95
2023-04-14T04:25:16.558Z,99467.29
2023-04-14T04:27:49.406Z,99469.75
2023-04-14T04:30:18.659Z,99471.50
2023-04-14T04:32:47.719Z,99475.17
2023-04-14T04:35:16.175Z,99474.98
2023-04-14T04:37:45.662Z,99476.19
2023-04-14T04:40:13.887Z,99474.84
2023-04-14T04:42:42.772Z,99475.69
2023-04-14T04:45:12.931Z,99476.04
2023-04-14T04:47:42.470Z,99477.06
2023-04-14T04:50:10.427Z,99481.44
2023-04-14T04:52:38.645Z,99482.81
2023-04-14T04:55:07.382Z,99481.85
2023-04-14T04:57:36.590Z,99484.83
2023-04-14T05:00:05.473Z,99486.42
2023-04-14T05:02:36.530Z,99482.36
2023-04-14T05:05:05.527Z,99485.09
2023-04-14T05:07:33.713Z,99480.73
2023-04-14T05:10:05.631Z,99481.52
2023-04-14T05:12:35.717Z,99483.92
2023-04-14T05:15:03.964Z,99482.92
2023-04-14T05:17:32.219Z,99484.05
2023-04-14T05:20:02.127Z,99485.52
2023-04-14T05:22:30.622Z,99494.16
2023-04-14T05:24:58.714Z,99503.85
2023-04-14T05:27:26.986Z,99505.05
2023-04-14T05:29:55.480Z,99505.21
2023-04-14T05:32:23.480Z,99508.95
2023-04-14T05:34:51.513Z,99506.12
2023-04-14T05:37:19.680Z,99511.44
2023-04-14T05:39:47.612Z,99510.97
2023-04-14T05:42:16.443Z,99513.90
2023-04-14T05:44:44.463Z,99509.85
2023-04-14T05:47:12.359Z,99510.44
2023-04-14T05:49:40.965Z,99517.42
2023-04-14T05:52:09.307Z,99515.73
2023-04-14T05:54:40.893Z,99513.81
2023-04-14T05:57:11.376Z,99518.42
2023-04-14T05:59:39.516Z,99519.34
2023-04-14T06:02:08.094Z,99523.05
2023-04-14T06:04:36.310Z,99522.92
2023-04-14T06:07:04.375Z,99529.33
2023-04-14T06:09:34.589Z,99528.99
2023-04-14T06:12:07.531Z,99536.45
2023-04-14T06:14:36.219Z,99538.46
2023-04-14T06:17:09.988Z,99536.84
2023-04-14T06:19:38.052Z,99538.16
2023-04-14T06:22:07.151Z,99540.39
2023-04-14T06:24:35.333Z,99544.18
2023-04-14T06:27:04.091Z,99546.14
2023-04-14T06:29:33.460Z,99547.17
2023-04-14T06:32:01.559Z,99559.16
2023-04-14T06:34:32.812Z,99562.15
2023-04-14T06:37:01.636Z,99564.65
2023-04-14T06:39:30.056Z,99565.60
2023-04-14T06:42:01.790Z,99570.21
2023-04-14T06:44:31.889Z,99572.10
2023-04-14T06:46:59.884Z,99568.78
2023-04-14T06:49:33.611Z,99564.84
2023-04-14T06:52:01.552Z,99566.33
2023-04-14T06:54:32.000Z,99566.94
2023-04-14T06:57:01.108Z,99568.05
2023-04-14T06:59:29.763Z,99572.70
2023-04-14T07:01:58.897Z,99570.72
2023-04-14T07:04:27.009Z,99573.88
2023-04-14T07:07:00.519Z,99573.46
2023-04-14T07:09:29.749Z,99577.83
2023-04-14T07:11:57.864Z,99577.81
2023-04-14T07:14:26.073Z,99580.85
2023-04-14T07:16:57.487Z,99582.61
2023-04-14T07:19:25.959Z,99582.09
2023-04-14T07:21:54.027Z,99585.54
2023-04-14T07:24:24.055Z,99588.81
2023-04-14T07:26:51.966Z,99591.41
2023-04-14T07:29:19.868Z,99593.79
2023-04-14T07:31:49.346Z,99591.97
2023-04-14T07:34:18.188Z,99595.61
2023-04-14T07:36:46.556Z,99593.65
2023-04-14T07:39:14.773Z,99593.28
2023-04-14T07:41:43.144Z,99593.58
2023-04-14T07:44:11.286Z,99593.74
2023-04-14T07:46:41.414Z,99589.86
2023-04-14T07:49:09.894Z,99590.01
2023-04-14T07:51:37.907Z,99589.33
2023-04-14T07:54:06.277Z,99586.02
2023-04-14T07:56:34.467Z,99586.59
2023-04-14T07:59:02.866Z,99589.14
2023-04-14T08:01:31.676Z,99592.02
2023-04-14T08:03:59.957Z,99589.13
2023-04-14T08:06:28.468Z,99586.80
2023-04-14T08:08:56.784Z,99588.94
2023-04-14T08:11:24.921Z,99587.73
2023-04-14T08:13:53.159Z,99590.55
2023-04-14T08:16:21.465Z,99595.82
2023-04-14T08:18:50.543Z,99595.08
2023-04-14T08:21:18.499Z,99597.50
2023-04-14T08:23:47.671Z,99597.80
2023-04-14T08:26:15.780Z,99602.44
2023-04-14T08:28:44.361Z,99608.85
2023-04-14T08:31:16.620Z,99618.07
2023-04-14T08:33:46.156Z,99616.00
2023-04-14T08:36:15.417Z,99621.36
2023-04-14T08:38:46.591Z,99627.05
2023-04-14T08:41:15.998Z,99627.09
2023-04-14T08:43:45.160Z,99628.53
2023-04-14T08:46:14.699Z,99628.44
2023-04-14T08:48:43.498Z,99632.08
2023-04-14T08:51:21.733Z,99629.21
2023-04-14T08:53:52.734Z,99629.97
2023-04-14T08:56:20.798Z,99628.61
2023-04-14T08:58:48.748Z,99629.89
2023-04-14T09:01:17.555Z,99628.42
2023-04-14T09:03:47.510Z,99629.52
2023-04-14T09:06:16.016Z,99628.71
2023-04-14T09:08:48.317Z,99630.22
2023-04-14T09:11:16.822Z,99628.14
2023-04-14T09:13:44.845Z,99623.65
2023-04-14T09:16:12.941Z,99625.98
2023-04-14T09:18:43.584Z,99624.05
2023-04-14T09:21:31.270Z,99621.02
2023-04-14T09:24:04.210Z,99617.87
2023-04-14T09:26:32.365Z,99620.98
2023-04-14T09:29:01.306Z,99617.93
2023-04-14T09:31:33.939Z,99624.20
2023-04-14T09:34:02.411Z,99623.00
2023-04-14T09:36:31.419Z,99621.29
2023-04-14T09:38:59.440Z,99623.71
2023-04-14T09:41:28.138Z,99627.39
2023-04-14T09:43:56.200Z,99625.83
2023-04-14T09:46:25.387Z,99624.05
2023-04-14T09:48:55.321Z,99626.23
2023-04-14T09:51:28.310Z,99626.95
2023-04-14T09:54:05.384Z,99622.60
2023-04-14T09:58:02.603Z,99636.51
2023-04-14T10:00:29.767Z,99638.70
2023-04-14T10:03:13.957Z,99645.67
2023-04-14T10:05:49.231Z,99644.02
2023-04-14T10:08:16.301Z,99646.77
2023-04-14T10:10:42.797Z,99647.70
2023-04-14T10:13:14.409Z,99654.46
2023-04-14T10:15:41.820Z,99658.30
2023-04-14T10:18:08.524Z,99661.02
2023-04-14T10:20:37.349Z,99666.41
2023-04-14T10:23:04.596Z,99671.33
2023-04-14T10:25:31.360Z,99666.59
2023-04-14T10:27:59.205Z,99668.48
2023-04-14T10:30:26.410Z,99673.02
2023-04-14T10:32:53.282Z,99676.20
2023-04-14T10:35:22.564Z,99679.08
2023-04-14T10:37:53.185Z,99679.25
2023-04-14T10:40:21.628Z,99685.75
2023-04-14T10:42:54.410Z,99689.95
2023-04-14T10:45:21.516Z,99693.40
2023-04-14T10:47:49.244Z,99698.58
2023-04-14T10:50:17.219Z,99700.23
2023-04-14T10:52:56.293Z,99707.06
2023-04-14T10:55:24.405Z,99705.90
2023-04-14T10:57:51.432Z,99710.27
2023-04-14T11:00:22.719Z,99712.94
2023-04-14T11:02:55.308Z,99716.27
2023-04-14T11:05:22.131Z,99716.77
2023-04-14T11:07:55.178Z,99717.25
2023-04-14T11:10:22.278Z,99719.79
2023-04-14T11:13:03.222Z,99721.25
2023-04-14T11:15:44.058Z,99724.09
2023-04-14T11:18:27.248Z,99720.74
2023-04-14T11:20:54.131Z,99718.62
2023-04-14T11:23:27.043Z,99717.41
2023-04-14T11:25:54.680Z,99714.87
2023-04-14T11:28:32.126Z,99718.61
2023-04-14T11:31:00.941Z,99718.34
2023-04-14T11:33:36.559Z,99717.27
2023-04-14T11:36:04.919Z,99711.04
2023-04-14T11:38:34.900Z,99710.64
2023-04-14T11:41:01.528Z,99712.45
2023-04-14T11:43:32.456Z,99718.75
2023-04-14T11:46:02.526Z,99715.48
2023-04-14T11:48:30.104Z,99718.02
2023-04-14T11:51:02.480Z,99718.91
2023-04-14T11:53:29.306Z,99717.73
2023-04-14T11:55:56.901Z,99718.13
2023-04-14T11:58:24.508Z,99719.64
2023-04-14T12:03:36.277Z,99724.27
2023-04-14T12:06:03.090Z,99722.08
2023-04-14T12:08:30.428Z,99720.23
2023-04-14T12:11:15.103Z,99717.95
2023-04-14T12:13:42.845Z,99721.13
2023-04-14T12:16:10.668Z,99719.70
2023-04-14T12:18:39.979Z,99720.28
2023-04-14T12:21:09.868Z,99719.66
2023-04-14T12:23:40.691Z,99720.45
2023-04-14T12:26:13.727Z,99721.04
2023-04-14T12:28:41.161Z,99723.27
2023-04-14T12:31:08.449Z,99720.66
2023-04-14T12:33:35.827Z,99723.10
2023-04-14T12:36:06.777Z,99716.70
2023-04-14T12:38:33.541Z,99718.88
2023-04-14T12:41:00.284Z,99717.41
2023-04-14T12:43:27.896Z,99716.27
2023-04-14T12:45:58.017Z,99710.02
2023-04-14T12:48:38.323Z,99712.23
2023-04-14T12:51:12.752Z,99709.42
2023-04-14T12:53:41.012Z,99710.83
2023-04-14T12:56:09.752Z,99712.98
2023-04-14T12:58:38.474Z,99717.71
2023-04-14T13:01:09.357Z,99718.63
2023-04-14T13:03:41.261Z,99717.09
2023-04-14T13:06:10.756Z,99720.80
2023-04-14T13:08:51.634Z,99723.91
2023-04-14T13:11:19.350Z,99724.00
2023-04-14T13:13:54.433Z,99722.29
2023-04-14T13:16:21.630Z,99719.66
2023-04-14T13:18:50.921Z,99720.44
2023-04-14T13:21:19.427Z,99722.77
2023-04-14T13:23:46.320Z,99726.38
2023-04-14T13:26:13.123Z,99727.52
2023-04-14T13:28:51.050Z,99724.52
2023-04-14T13:31:20.051Z,99725.42
2023-04-14T13:33:46.878Z,99728.51
2023-04-14T13:36:13.388Z,99731.11
2023-04-14T13:38:41.191Z,99737.12
2023-04-14T13:41:08.174Z,99731.05
2023-04-14T13:43:35.538Z,99736.36
2023-04-14T13:46:02.462Z,99740.34
2023-04-14T13:48:30.533Z,99740.16
2023-04-14T13:50:58.677Z,99743.18
2023-04-14T13:53:25.262Z,99741.73
2023-04-14T13:55:51.926Z,99741.52
2023-04-14T13:58:18.770Z,99742.64
2023-04-14T14:00:46.247Z,99743.76
2023-04-14T14:03:32.782Z,99744.95
2023-04-14T14:06:00.854Z,99742.66
2023-04-14T14:08:29.622Z,99746.23
2023-04-14T14:10:56.197Z,99748.90
2023-04-14T14:13:25.228Z,99754.99
2023-04-14T14:15:52.224Z,99755.04
2023-04-14T14:18:21.976Z,99756.69
2023-04-14T14:20:50.749Z,99754.52
2023-04-14T14:23:17.587Z,99756.77
2023-04-14T14:25:44.765Z,99753.34
2023-04-14T14:28:12.046Z,99755.06
2023-04-14T14:30:38.866Z,99758.88
2023-04-14T14:33:06.284Z,99765.34
2023-04-14T14:35:32.826Z,99763.67
2023-04-14T14:38:00.810Z,99764.71
2023-04-14T14:40:31.161Z,99764.86
2023-04-14T14:42:57.913Z,99765.64
2023-04-14T14:45:30.365Z,99762.96
2023-04-14T14:47:59.304Z,99767.48
2023-04-14T14:50:26.745Z,99774.02
2023-04-14T14:52:56.198Z,99775.35
2023-04-14T14:55:23.108Z,99779.57
2023-04-14T14:57:50.658Z,99782.54
2023-04-14T15:00:22.602Z,99788.14
2023-04-14T15:03:09.271Z,99795.08
2023-04-14T15:05:37.641Z,99794.17
2023-04-14T15:08:04.332Z,99800.27
2023-04-14T15:10:33.122Z,99806.62
2023-04-14T15:13:00.552Z,99807.30
2023-04-14T15:15:27.417Z,99813.40
2023-04-14T15:17:56.256Z,99812.17
2023-04-14T15:20:22.866Z,99816.23
2023-04-14T15:22:50.205Z,99817.91
2023-04-14T15:25:16.787Z,99821.09
2023-04-14T15:27:45.045Z,99823.89
2023-04-14T15:30:12.027Z,99828.02
2023-04-14T15:32:39.268Z,99831.09
2023-04-14T15:35:09.051Z,99836.64
2023-04-14T15:37:36.399Z,99841.73
2023-04-14T15:40:03.529Z,99841.91
2023-04-14T15:42:31.664Z,99843.27
2023-04-14T15:44:58.203Z,99844.81
2023-04-14T15:47:27.634Z,99850.49
2023-04-14T15:50:09.590Z,99856.30
2023-04-14T15:52:39.039Z,99858.01
2023-04-14T15:55:06.807Z,99859.15
2023-04-14T15:57:35.038Z,99860.84
2023-04-14T16:00:04.085Z,99859.85
2023-04-14T16:02:41.376Z,99863.16
2023-04-14T16:05:10.533Z,99866.95
2023-04-14T16:07:38.786Z,99871.66
2023-04-14T16:10:06.384Z,99879.67
2023-04-14T16:12:34.559Z,99881.70
2023-04-14T16:15:06.414Z,99886.41
2023-04-14T16:17:34.432Z,99887.17
2023-04-14T16:20:02.183Z,99893.06
2023-04-14T16:22:42.249Z,99894.14
2023-04-14T16:25:10.181Z,99901.70
2023-04-14T16:27:36.794Z,99907.64
2023-04-14T16:30:05.387Z,99909.70
2023-04-14T16:32:34.689Z,99911.38
2023-04-14T16:35:01.781Z,99917.09
2023-04-14T16:37:32.543Z,99916.10
2023-04-14T16:40:01.077Z,99921.05
2023-04-14T16:42:27.839Z,99920.30
2023-04-14T16:44:57.651Z,99920.65
2023-04-14T16:47:24.939Z,99919.33
2023-04-14T16:49:52.403Z,99921.36
2023-04-14T16:52:20.718Z,99926.92
2023-04-14T16:54:47.760Z,99927.83
2023-04-14T16:57:14.847Z,99934.32
2023-04-14T16:59:42.496Z,99937.04
2023-04-14T17:02:09.244Z,99938.20
2023-04-14T17:04:35.930Z,99941.13
2023-04-14T17:07:05.635Z,99940.98
2023-04-14T17:09:32.742Z,99944.98
2023-04-14T17:11:59.870Z,99948.69
2023-04-14T17:14:26.473Z,99948.55
2023-04-14T17:16:54.192Z,99952.41
2023-04-14T17:19:20.882Z,99956.19
2023-04-14T17:21:48.972Z,99957.00
2023-04-14T17:24:15.672Z,99959.81
2023-04-14T17:26:43.668Z,99963.46
2023-04-14T17:29:10.412Z,99966.52
2023-04-14T17:31:38.542Z,99967.95
2023-04-14T17:34:10.016Z,99969.21
2023-04-14T17:36:39.512Z,99968.74
2023-04-14T17:39:07.583Z,99963.91
2023-04-14T17:41:34.230Z,99965.61
2023-04-14T17:44:06.611Z,99970.60
2023-04-14T17:46:33.855Z,99976.48
2023-04-14T17:49:01.257Z,99981.87
2023-04-14T17:51:29.392Z,99977.45
2023-04-14T17:53:56.457Z,99982.44
2023-04-14T17:56:25.035Z,99984.36
2023-04-14T17:58:52.171Z,99986.11
2023-04-14T18:01:18.983Z,99986.80
2023-04-14T18:03:46.479Z,99990.29
2023-04-14T18:06:13.538Z,99989.80
2023-04-14T18:08:42.925Z,99988.71
2023-04-14T18:11:10.471Z,99991.11
2023-04-14T18:13:37.528Z,99992.47
2023-04-14T18:16:04.569Z,99991.54
2023-04-14T18:18:35.819Z,99989.44
2023-04-14T18:21:02.654Z,99989.58
2023-04-14T18:23:29.513Z,99995.02
2023-04-14T18:28:31.089Z,99997.85
2023-04-14T18:30:58.746Z,100001.98
2023-04-14T18:33:27.409Z,99999.33
2023-04-14T18:35:56.138Z,99998.53
2023-04-14T18:38:23.416Z,100000.95
2023-04-14T18:40:50.252Z,99999.52
2023-04-14T18:43:17.256Z,100003.77
2023-04-14T18:45:47.712Z,100006.36
2023-04-14T18:48:17.412Z,100002.23
2023-04-14T18:50:44.553Z,100000.11
2023-04-14T18:53:11.461Z,100004.75
2023-04-14T18:55:45.046Z,100002.48
2023-04-14T18:58:12.593Z,100005.91
2023-04-14T19:00:39.345Z,100004.36
2023-04-14T19:03:08.149Z,100000.26
2023-04-14T19:05:36.370Z,99999.81
2023-04-14T19:08:06.879Z,99995.16
2023-04-14T19:10:40.351Z,99994.27
2023-04-14T19:13:12.008Z,99989.83
2023-04-14T19:15:38.614Z,99992.42
2023-04-14T19:18:05.336Z,99990.96
2023-04-14T19:20:33.058Z,99983.00
2023-04-14T19:22:59.906Z,99985.78
2023-04-14T19:25:26.710Z,99986.75
2023-04-14T19:27:57.292Z,99991.19
2023-04-14T19:30:23.952Z,99988.92
2023-04-14T19:32:52.799Z,99990.46
2023-04-14T19:35:20.151Z,99989.30
2023-04-14T19:37:46.678Z,99994.58
2023-04-14T19:40:13.883Z,99993.00
2023-04-14T19:42:41.504Z,99993.55
2023-04-14T19:45:09.623Z,99989.44
2023-04-14T19:47:38.198Z,99989.45
2023-04-14T19:50:05.409Z,99993.78
2023-04-14T19:52:32.090Z,99995.75
2023-04-14T19:54:58.813Z,100000.20
2023-04-14T19:57:26.878Z,100005.14
2023-04-14T19:59:56.846Z,100009.19
2023-04-14T20:02:23.391Z,100010.86
2023-04-14T20:04:56.906Z,100015.02
2023-04-14T20:07:24.063Z,100013.49
2023-04-14T20:09:54.154Z,100011.09
2023-04-14T20:12:20.691Z,100008.35
2023-04-14T20:14:47.175Z,100014.40
2023-04-14T20:17:17.873Z,100014.66
2023-04-14T20:19:44.958Z,100020.84
2023-04-14T20:22:12.832Z,100018.08
2023-04-14T20:24:43.353Z,100024.45
2023-04-14T20:27:11.125Z,100023.73
2023-04-14T20:29:37.656Z,100025.27
2023-04-14T20:32:07.027Z,100024.81
2023-04-14T20:34:33.584Z,100023.66
2023-04-14T20:37:00.900Z,100022.84
2023-04-14T20:39:29.072Z,100031.34
2023-04-14T20:41:55.928Z,100038.75
2023-04-14T20:44:23.326Z,100043.57
2023-04-14T20:46:49.992Z,100046.15
2023-04-14T20:49:17.536Z,100046.89
2023-04-14T20:51:46.092Z,100049.02
2023-04-14T20:54:13.313Z,100048.28
2023-04-14T20:56:46.653Z,100053.72
2023-04-14T20:59:13.234Z,100053.78
2023-04-14T21:01:42.103Z,100053.22
2023-04-14T21:04:09.764Z,100058.63
2023-04-14T21:06:38.000Z,100057.85
2023-04-14T21:09:05.365Z,100058.77
2023-04-14T21:11:32.415Z,100058.11
2023-04-14T21:15:27.198Z,100056.08
2023-04-14T21:16:46.226Z,100061.64
2023-04-14T21:19:12.841Z,100069.28
2023-04-14T21:21:42.968Z,100072.50
2023-04-14T21:24:09.881Z,100078.23
2023-04-14T21:26:36.623Z,100086.53
2023-04-14T21:29:04.658Z,100085.71
2023-04-14T21:31:31.826Z,100090.70
2023-04-14T21:33:58.404Z,100098.05
2023-04-14T21:36:25.305Z,100103.08
2023-04-14T21:38:52.406Z,100102.48
2023-04-14T21:41:19.379Z,100117.04
2023-04-14T21:43:46.777Z,100118.14
2023-04-14T21:46:14.290Z,100123.46
2023-04-14T21:48:41.240Z,100130.98
2023-04-14T21:51:08.416Z,100134.48
2023-04-14T21:53:38.036Z,100134.14
2023-04-14T21:56:09.439Z,100138.48
2023-04-14T21:58:38.699Z,100139.48
2023-04-14T22:01:06.444Z,100149.88
2023-04-14T22:03:36.740Z,100155.80
2023-04-14T22:06:03.747Z,100160.80
2023-04-14T22:08:31.075Z,100163.29
2023-04-14T22:10:57.567Z,100164.42
2023-04-14T22:14:36.729Z,100179.14
2023-04-14T22:17:04.779Z,100175.46
2023-04-14T22:19:34.173Z,100176.82
2023-04-14T22:22:02.082Z,100179.64
2023-04-14T22:24:30.734Z,100175.60
2023-04-14T22:26:58.790Z,100178.92
2023-04-14T22:29:27.265Z,100178.30
2023-04-14T22:31:58.950Z,100177.67
2023-04-14T22:34:28.851Z,100179.30
2023-04-14T22:36:58.050Z,100183.64
2023-04-14T22:39:29.306Z,100182.73
2023-04-14T22:41:57.677Z,100183.98
2023-04-14T22:44:25.703Z,100183.82
2023-04-14T22:46:57.200Z,100185.41
2023-04-14T22:49:25.243Z,100182.08
2023-04-14T22:51:53.320Z,100180.73
2023-04-14T22:54:23.006Z,100177.95
2023-04-14T22:56:51.057Z,100178.13
2023-04-14T22:59:19.042Z,100178.74
2023-04-14T23:01:48.316Z,100177.02
2023-04-14T23:04:19.315Z,100176.85
2023-04-14T23:06:47.908Z,100172.38
2023-04-14T23:09:17.449Z,100172.67
2023-04-14T23:11:45.767Z,100170.60
2023-04-14T23:14:13.947Z,100170.70
2023-04-14T23:16:42.612Z,100170.33
2023-04-14T23:19:10.645Z,100172.95
2023-04-14T23:21:39.662Z,100172.00
2023-04-14T23:24:08.097Z,100176.45
2023-04-14T23:26:38.334Z,100176.14
2023-04-14T23:29:06.792Z,100178.04
2023-04-14T23:31:34.818Z,100182.41
2023-04-14T23:34:04.517Z,100187.95
2023-04-14T23:36:33.296Z,100187.77
2023-04-14T23:39:01.585Z,100195.63
2023-04-14T23:41:31.633Z,100190.18
2023-04-14T23:43:59.985Z,100186.77
2023-04-14T23:46:28.425Z,100187.67
2023-04-14T23:49:03.113Z,100179.94
2023-04-14T23:51:46.855Z,100176.72
2023-04-14T23:54:15.467Z,100172.15
2023-04-14T23:56:44.415Z,100175.51
2023-04-14T23:59:13.307Z,100173.81
